createdAt,value
2022-11-15T00:00:00.160Z,100620
2022-11-15T00:01:00.150Z,100630
2022-11-15T00:02:00.298Z,100630
2022-11-15T00:03:00.152Z,100620
2022-11-15T00:04:00.161Z,100620
2022-11-15T00:05:00.160Z,100620
2022-11-15T00:06:02.192Z,100620
2022-11-15T00:07:00.225Z,100610
2022-11-15T00:08:00.267Z,100610
2022-11-15T00:09:00.616Z,100610
2022-11-15T00:10:00.163Z,100610
2022-11-15T00:11:00.926Z,100610
2022-11-15T00:12:00.158Z,100610
2022-11-15T00:13:00.174Z,100610
2022-11-15T00:14:00.421Z,100610
2022-11-15T00:15:00.185Z,100610
2022-11-15T00:16:00.795Z,100610
2022-11-15T00:17:00.156Z,100610
2022-11-15T00:18:00.156Z,100610
2022-11-15T00:19:00.156Z,100620
2022-11-15T00:20:00.162Z,100620
2022-11-15T00:21:04.486Z,100610
2022-11-15T00:22:00.331Z,100610
2022-11-15T00:23:00.165Z,100610
2022-11-15T00:24:00.164Z,100610
2022-11-15T00:25:00.155Z,100610
2022-11-15T00:26:00.216Z,100610
2022-11-15T00:27:00.159Z,100620
2022-11-15T00:28:00.645Z,100620
2022-11-15T00:29:00.145Z,100610
2022-11-15T00:30:00.417Z,100610
2022-11-15T00:31:02.119Z,100620
2022-11-15T00:32:00.171Z,100620
2022-11-15T00:33:02.477Z,100610
2022-11-15T00:34:00.161Z,100610
2022-11-15T00:35:00.162Z,100610
2022-11-15T00:36:00.942Z,100610
2022-11-15T00:37:00.160Z,100610
2022-11-15T00:38:00.550Z,100610
2022-11-15T00:39:00.159Z,100600
2022-11-15T00:40:00.155Z,100600
2022-11-15T00:41:03.867Z,100600
2022-11-15T00:42:00.163Z,100600
2022-11-15T00:43:00.169Z,100610
2022-11-15T00:44:00.149Z,100610
2022-11-15T00:45:00.168Z,100610
2022-11-15T00:46:00.178Z,100610
2022-11-15T00:47:00.157Z,100600
2022-11-15T00:48:00.211Z,100600
2022-11-15T00:49:00.153Z,100600
2022-11-15T00:50:00.160Z,100600
2022-11-15T00:51:00.171Z,100600
2022-11-15T00:52:00.164Z,100600
2022-11-15T00:53:00.161Z,100600
2022-11-15T00:54:00.253Z,100600
2022-11-15T00:55:00.158Z,100590
2022-11-15T00:56:00.157Z,100590
2022-11-15T00:57:00.162Z,100590
2022-11-15T00:58:00.179Z,100590
2022-11-15T00:59:00.155Z,100590
2022-11-15T01:00:00.163Z,100590
2022-11-15T01:01:08.468Z,100590
2022-11-15T01:02:00.172Z,100590
2022-11-15T01:03:00.684Z,100590
2022-11-15T01:04:01.612Z,100590
2022-11-15T01:05:00.156Z,100590
2022-11-15T01:06:00.376Z,100590
2022-11-15T01:07:00.286Z,100590
2022-11-15T01:08:00.154Z,100590
2022-11-15T01:09:00.154Z,100580
2022-11-15T01:10:00.187Z,100580
2022-11-15T01:11:01.336Z,100580
2022-11-15T01:12:00.151Z,100580
2022-11-15T01:13:00.166Z,100580
2022-11-15T01:14:00.260Z,100580
2022-11-15T01:15:00.243Z,100580
2022-11-15T01:16:08.558Z,100580
2022-11-15T01:17:00.163Z,100580
2022-11-15T01:18:00.167Z,100580
2022-11-15T01:19:00.167Z,100580
2022-11-15T01:20:00.201Z,100580
2022-11-15T01:21:04.072Z,100580
2022-11-15T01:22:00.447Z,100580
2022-11-15T01:23:00.187Z,100580
2022-11-15T01:24:00.164Z,100580
2022-11-15T01:25:00.195Z,100570
2022-11-15T01:26:00.802Z,100570
2022-11-15T01:27:00.159Z,100570
2022-11-15T01:28:00.238Z,100570
2022-11-15T01:29:00.164Z,100570
2022-11-15T01:30:00.167Z,100570
2022-11-15T01:31:02.008Z,100560
2022-11-15T01:32:00.344Z,100560
2022-11-15T01:33:00.169Z,100560
2022-11-15T01:34:00.215Z,100560
2022-11-15T01:35:00.162Z,100560
2022-11-15T01:36:03.312Z,100560
2022-11-15T01:37:00.175Z,100560
2022-11-15T01:38:00.166Z,100560
2022-11-15T01:39:00.162Z,100560
2022-11-15T01:40:00.154Z,100560
2022-11-15T01:41:00.264Z,100550
2022-11-15T01:42:00.163Z,100550
2022-11-15T01:43:10.093Z,100550
2022-11-15T01:44:10.100Z,100550
2022-11-15T01:45:00.186Z,100550
2022-11-15T01:46:03.509Z,100550
2022-11-15T01:47:02.937Z,100550
2022-11-15T01:48:00.213Z,100550
2022-11-15T01:49:03.779Z,100550
2022-11-15T01:50:04.135Z,100550
2022-11-15T01:51:01.873Z,100550
2022-11-15T01:52:01.464Z,100550
2022-11-15T01:53:00.195Z,100550
2022-11-15T01:54:04.742Z,100550
2022-11-15T01:55:09.657Z,100550
2022-11-15T01:56:02.501Z,100550
2022-11-15T01:57:03.604Z,100550
2022-11-15T01:58:01.808Z,100550
2022-11-15T01:59:02.791Z,100550
2022-11-15T02:00:00.932Z,100550
2022-11-15T02:01:00.307Z,100550
2022-11-15T02:02:00.491Z,100550
2022-11-15T02:03:00.505Z,100560
2022-11-15T02:04:05.744Z,100560
2022-11-15T02:05:00.202Z,100550
2022-11-15T02:06:00.236Z,100550
2022-11-15T02:07:01.627Z,100550
2022-11-15T02:08:00.485Z,100550
2022-11-15T02:09:00.257Z,100550
2022-11-15T02:10:04.055Z,100550
2022-11-15T02:11:00.205Z,100550
2022-11-15T02:12:00.362Z,100550
2022-11-15T02:13:01.274Z,100550
2022-11-15T02:14:00.948Z,100550
2022-11-15T02:15:01.382Z,100550
2022-11-15T02:16:10.104Z,100550
2022-11-15T02:17:01.179Z,100550
2022-11-15T02:18:08.030Z,100550
2022-11-15T02:19:05.329Z,100540
2022-11-15T02:20:10.108Z,100540
2022-11-15T02:21:10.104Z,100530
2022-11-15T02:22:10.106Z,100530
2022-11-15T02:23:10.104Z,100530
2022-11-15T02:24:09.969Z,100530
2022-11-15T02:25:10.100Z,100520
2022-11-15T02:26:07.468Z,100520
2022-11-15T02:27:10.099Z,100530
2022-11-15T02:28:10.110Z,100530
2022-11-15T02:29:05.724Z,100530
2022-11-15T02:30:10.120Z,100530
2022-11-15T02:31:04.298Z,100520
2022-11-15T02:32:04.611Z,100520
2022-11-15T02:33:10.094Z,100520
2022-11-15T02:34:00.154Z,100520
2022-11-15T02:35:04.040Z,100520
2022-11-15T02:36:05.644Z,100520
2022-11-15T02:37:07.258Z,100520
2022-11-15T02:38:06.610Z,100520
2022-11-15T02:39:05.163Z,100520
2022-11-15T02:40:01.171Z,100520
2022-11-15T02:41:03.847Z,100520
2022-11-15T02:42:02.608Z,100520
2022-11-15T02:43:08.199Z,100520
2022-11-15T02:44:03.671Z,100520
2022-11-15T02:45:03.747Z,100520
2022-11-15T02:46:05.121Z,100520
2022-11-15T02:47:02.028Z,100520
2022-11-15T02:48:00.889Z,100520
2022-11-15T02:49:00.431Z,100520
2022-11-15T02:50:04.537Z,100520
2022-11-15T02:51:00.922Z,100510
2022-11-15T02:52:00.249Z,100510
2022-11-15T02:53:00.152Z,100510
2022-11-15T02:54:00.161Z,100510
2022-11-15T02:55:00.852Z,100520
2022-11-15T02:56:00.507Z,100520
2022-11-15T02:57:03.437Z,100510
2022-11-15T02:58:10.100Z,100510
2022-11-15T02:59:10.090Z,100510
2022-11-15T03:00:08.945Z,100510
2022-11-15T03:01:04.703Z,100510
2022-11-15T03:02:03.392Z,100510
2022-11-15T03:03:00.155Z,100510
2022-11-15T03:04:10.091Z,100510
2022-11-15T03:05:00.147Z,100510
2022-11-15T03:06:10.090Z,100510
2022-11-15T03:07:00.253Z,100500
2022-11-15T03:08:10.093Z,100500
2022-11-15T03:09:00.141Z,100510
2022-11-15T03:10:10.107Z,100510
2022-11-15T03:11:07.150Z,100500
2022-11-15T03:12:05.536Z,100500
2022-11-15T03:13:09.602Z,100500
2022-11-15T03:14:10.093Z,100500
2022-11-15T03:15:04.354Z,100500
2022-11-15T03:16:06.897Z,100500
2022-11-15T03:17:00.138Z,100500
2022-11-15T03:18:04.707Z,100500
2022-11-15T03:19:04.923Z,100490
2022-11-15T03:20:01.913Z,100490
2022-11-15T03:21:02.424Z,100490
2022-11-15T03:22:02.722Z,100490
2022-11-15T03:23:02.779Z,100500
2022-11-15T03:24:03.667Z,100500
2022-11-15T03:25:04.189Z,100500
2022-11-15T03:26:00.330Z,100500
2022-11-15T03:27:01.326Z,100500
2022-11-15T03:28:02.624Z,100500
2022-11-15T03:29:04.521Z,100500
2022-11-15T03:30:02.225Z,100500
2022-11-15T03:31:01.334Z,100500
2022-11-15T03:32:03.547Z,100500
2022-11-15T03:33:01.989Z,100500
2022-11-15T03:34:02.564Z,100500
2022-11-15T03:35:10.093Z,100500
2022-11-15T03:36:00.153Z,100500
2022-11-15T03:37:01.355Z,100500
2022-11-15T03:38:10.130Z,100500
2022-11-15T03:39:04.917Z,100500
2022-11-15T03:40:00.393Z,100500
2022-11-15T03:41:01.808Z,100500
2022-11-15T03:42:01.157Z,100500
2022-11-15T03:43:07.495Z,100510
2022-11-15T03:44:05.015Z,100510
2022-11-15T03:45:10.102Z,100510
2022-11-15T03:46:03.840Z,100510
2022-11-15T03:47:09.798Z,100510
2022-11-15T03:48:10.091Z,100510
2022-11-15T03:49:07.979Z,100510
2022-11-15T03:50:04.469Z,100510
2022-11-15T03:51:00.537Z,100510
2022-11-15T03:52:01.613Z,100510
2022-11-15T03:53:00.211Z,100510
2022-11-15T03:54:02.332Z,100510
2022-11-15T03:55:01.190Z,100510
2022-11-15T03:56:00.159Z,100510
2022-11-15T03:57:00.184Z,100500
2022-11-15T03:58:00.713Z,100500
2022-11-15T03:59:00.189Z,100500
2022-11-15T04:00:00.190Z,100500
2022-11-15T04:01:00.448Z,100510
2022-11-15T04:02:00.145Z,100510
2022-11-15T04:03:00.202Z,100510
2022-11-15T04:04:00.150Z,100510
2022-11-15T04:05:00.152Z,100500
2022-11-15T04:06:00.148Z,100500
2022-11-15T04:07:00.240Z,100500
2022-11-15T04:08:00.154Z,100500
2022-11-15T04:09:00.155Z,100500
2022-11-15T04:10:00.162Z,100500
2022-11-15T04:11:02.401Z,100500
2022-11-15T04:12:00.155Z,100500
2022-11-15T04:13:02.004Z,100500
2022-11-15T04:14:00.194Z,100500
2022-11-15T04:15:03.332Z,100500
2022-11-15T04:16:00.162Z,100500
2022-11-15T04:17:00.158Z,100500
2022-11-15T04:18:00.156Z,100500
2022-11-15T04:19:00.147Z,100500
2022-11-15T04:20:00.179Z,100500
2022-11-15T04:21:00.156Z,100500
2022-11-15T04:22:00.156Z,100500
2022-11-15T04:23:00.914Z,100500
2022-11-15T04:24:00.147Z,100500
2022-11-15T04:25:00.154Z,100500
2022-11-15T04:26:01.701Z,100500
2022-11-15T04:27:00.195Z,100500
2022-11-15T04:28:00.156Z,100500
2022-11-15T04:29:00.152Z,100500
2022-11-15T04:30:00.246Z,100500
2022-11-15T04:31:00.150Z,100500
2022-11-15T04:32:01.099Z,100500
2022-11-15T04:33:00.155Z,100500
2022-11-15T04:34:01.052Z,100500
2022-11-15T04:35:00.146Z,100500
2022-11-15T04:36:00.162Z,100500
2022-11-15T04:37:00.173Z,100500
2022-11-15T04:38:00.733Z,100500
2022-11-15T04:39:00.146Z,100500
2022-11-15T04:40:00.155Z,100500
2022-11-15T04:41:00.203Z,100500
2022-11-15T04:42:00.152Z,100500
2022-11-15T04:43:03.955Z,100500
2022-11-15T04:44:00.165Z,100500
2022-11-15T04:45:00.149Z,100500
2022-11-15T04:46:00.142Z,100500
2022-11-15T04:47:00.635Z,100500
2022-11-15T04:48:00.152Z,100500
2022-11-15T04:49:00.162Z,100500
2022-11-15T04:50:00.155Z,100500
2022-11-15T04:51:00.154Z,100500
2022-11-15T04:52:00.146Z,100500
2022-11-15T04:53:00.146Z,100500
2022-11-15T04:54:00.163Z,100500
2022-11-15T04:55:05.050Z,100500
2022-11-15T04:56:00.194Z,100500
2022-11-15T04:57:00.160Z,100500
2022-11-15T04:58:01.156Z,100500
2022-11-15T04:59:00.205Z,100510
2022-11-15T05:00:00.176Z,100510
2022-11-15T05:01:10.213Z,100510
2022-11-15T05:02:00.162Z,100510
2022-11-15T05:03:00.160Z,100500
2022-11-15T05:04:00.165Z,100500
2022-11-15T05:05:00.164Z,100500
2022-11-15T05:06:00.200Z,100500
2022-11-15T05:07:00.233Z,100500
2022-11-15T05:08:00.174Z,100500
2022-11-15T05:09:00.169Z,100490
2022-11-15T05:10:00.147Z,100490
2022-11-15T05:11:00.143Z,100500
2022-11-15T05:12:00.172Z,100500
2022-11-15T05:13:00.147Z,100500
2022-11-15T05:14:00.163Z,100500
2022-11-15T05:15:00.158Z,100490
2022-11-15T05:16:00.194Z,100490
2022-11-15T05:17:00.182Z,100490
2022-11-15T05:18:00.170Z,100490
2022-11-15T05:19:00.158Z,100500
2022-11-15T05:20:00.225Z,100500
2022-11-15T05:21:04.018Z,100500
2022-11-15T05:22:00.160Z,100500
2022-11-15T05:23:00.474Z,100490
2022-11-15T05:24:00.266Z,100490
2022-11-15T05:25:00.166Z,100490
2022-11-15T05:26:05.059Z,100490
2022-11-15T05:27:00.153Z,100490
2022-11-15T05:28:00.152Z,100490
2022-11-15T05:29:00.160Z,100490
2022-11-15T05:30:00.214Z,100490
2022-11-15T05:31:02.042Z,100490
2022-11-15T05:32:00.161Z,100490
2022-11-15T05:33:00.553Z,100490
2022-11-15T05:34:00.882Z,100490
2022-11-15T05:35:00.282Z,100490
2022-11-15T05:36:02.550Z,100490
2022-11-15T05:37:00.267Z,100490
2022-11-15T05:38:00.233Z,100490
2022-11-15T05:39:00.216Z,100490
2022-11-15T05:40:00.152Z,100490
2022-11-15T05:41:00.812Z,100480
2022-11-15T05:42:04.524Z,100480
2022-11-15T05:43:01.280Z,100490
2022-11-15T05:44:01.171Z,100490
2022-11-15T05:45:01.989Z,100480
2022-11-15T05:46:01.889Z,100480
2022-11-15T05:47:00.244Z,100490
2022-11-15T05:48:01.050Z,100490
2022-11-15T05:49:00.687Z,100490
2022-11-15T05:50:00.191Z,100490
2022-11-15T05:51:00.619Z,100480
2022-11-15T05:52:02.210Z,100480
2022-11-15T05:53:05.148Z,100480
2022-11-15T05:54:00.841Z,100480
2022-11-15T05:55:01.409Z,100480
2022-11-15T05:56:00.220Z,100480
2022-11-15T05:57:00.170Z,100490
2022-11-15T05:58:00.662Z,100490
2022-11-15T05:59:00.475Z,100490
2022-11-15T06:00:00.684Z,100490
2022-11-15T06:01:00.605Z,100490
2022-11-15T06:02:00.317Z,100490
2022-11-15T06:03:00.157Z,100500
2022-11-15T06:04:00.169Z,100500
2022-11-15T06:05:00.336Z,100500
2022-11-15T06:06:00.174Z,100500
2022-11-15T06:07:00.219Z,100500
2022-11-15T06:08:00.484Z,100500
2022-11-15T06:09:00.192Z,100490
2022-11-15T06:10:00.201Z,100490
2022-11-15T06:11:04.752Z,100500
2022-11-15T06:12:00.176Z,100500
2022-11-15T06:13:01.227Z,100500
2022-11-15T06:14:00.185Z,100500
2022-11-15T06:15:00.153Z,100490
2022-11-15T06:16:00.468Z,100490
2022-11-15T06:17:00.183Z,100490
2022-11-15T06:18:00.573Z,100490
2022-11-15T06:19:00.747Z,100490
2022-11-15T06:20:00.174Z,100490
2022-11-15T06:21:00.814Z,100490
2022-11-15T06:22:00.154Z,100490
2022-11-15T06:23:01.294Z,100490
2022-11-15T06:24:00.168Z,100490
2022-11-15T06:25:04.207Z,100490
2022-11-15T06:26:01.154Z,100490
2022-11-15T06:27:00.151Z,100490
2022-11-15T06:28:00.154Z,100490
2022-11-15T06:29:00.160Z,100500
2022-11-15T06:30:00.166Z,100500
2022-11-15T06:31:04.494Z,100500
2022-11-15T06:32:00.163Z,100500
2022-11-15T06:33:01.268Z,100510
2022-11-15T06:34:00.182Z,100510
2022-11-15T06:35:00.167Z,100510
2022-11-15T06:36:02.114Z,100510
2022-11-15T06:37:00.180Z,100510
2022-11-15T06:38:08.785Z,100510
2022-11-15T06:39:00.227Z,100520
2022-11-15T06:40:00.160Z,100520
2022-11-15T06:41:04.221Z,100520
2022-11-15T06:42:00.163Z,100520
2022-11-15T06:43:00.156Z,100520
2022-11-15T06:44:00.163Z,100520
2022-11-15T06:45:00.402Z,100520
2022-11-15T06:46:00.831Z,100520
2022-11-15T06:47:00.183Z,100520
2022-11-15T06:48:00.196Z,100520
2022-11-15T06:49:03.924Z,100530
2022-11-15T06:50:00.162Z,100530
2022-11-15T06:51:00.982Z,100530
2022-11-15T06:52:00.160Z,100530
2022-11-15T06:53:00.863Z,100530
2022-11-15T06:54:00.222Z,100530
2022-11-15T06:55:00.158Z,100530
2022-11-15T06:56:00.611Z,100530
2022-11-15T06:57:00.147Z,100540
2022-11-15T06:58:00.164Z,100540
2022-11-15T06:59:00.270Z,100540
2022-11-15T07:00:00.209Z,100540
2022-11-15T07:01:03.088Z,100540
2022-11-15T07:02:00.325Z,100540
2022-11-15T07:03:00.857Z,100540
2022-11-15T07:04:00.151Z,100540
2022-11-15T07:05:00.165Z,100540
2022-11-15T07:06:06.651Z,100540
2022-11-15T07:07:00.241Z,100540
2022-11-15T07:08:00.553Z,100540
2022-11-15T07:09:01.717Z,100530
2022-11-15T07:10:00.166Z,100530
2022-11-15T07:11:01.175Z,100540
2022-11-15T07:12:06.232Z,100540
2022-11-15T07:13:00.157Z,100530
2022-11-15T07:14:00.177Z,100530
2022-11-15T07:15:00.169Z,100530
2022-11-15T07:16:01.959Z,100530
2022-11-15T07:17:02.772Z,100530
2022-11-15T07:18:00.967Z,100530
2022-11-15T07:19:00.163Z,100530
2022-11-15T07:20:00.178Z,100530
2022-11-15T07:21:00.960Z,100530
2022-11-15T07:22:00.157Z,100530
2022-11-15T07:23:00.595Z,100530
2022-11-15T07:24:00.154Z,100530
2022-11-15T07:25:00.151Z,100540
2022-11-15T07:26:00.173Z,100540
2022-11-15T07:27:00.173Z,100540
2022-11-15T07:28:00.428Z,100540
2022-11-15T07:29:00.205Z,100550
2022-11-15T07:30:00.546Z,100550
2022-11-15T07:31:03.872Z,100550
2022-11-15T07:32:00.154Z,100550
2022-11-15T07:33:00.335Z,100550
2022-11-15T07:34:00.149Z,100550
2022-11-15T07:35:00.175Z,100550
2022-11-15T07:36:00.617Z,100550
2022-11-15T07:37:00.169Z,100560
2022-11-15T07:38:01.358Z,100560
2022-11-15T07:39:00.196Z,100560
2022-11-15T07:40:00.186Z,100560
2022-11-15T07:41:01.340Z,100550
2022-11-15T07:42:00.198Z,100550
2022-11-15T07:43:02.171Z,100550
2022-11-15T07:44:00.161Z,100550
2022-11-15T07:45:00.162Z,100550
2022-11-15T07:46:04.266Z,100550
2022-11-15T07:47:00.153Z,100550
2022-11-15T07:48:00.187Z,100550
2022-11-15T07:49:00.155Z,100540
2022-11-15T07:50:00.166Z,100540
2022-11-15T07:51:00.156Z,100550
2022-11-15T07:52:00.158Z,100550
2022-11-15T07:53:00.193Z,100540
2022-11-15T07:54:00.177Z,100540
2022-11-15T07:55:00.156Z,100550
2022-11-15T07:56:00.151Z,100550
2022-11-15T07:57:06.646Z,100540
2022-11-15T07:58:01.041Z,100540
2022-11-15T07:59:00.155Z,100540
2022-11-15T08:00:00.173Z,100540
2022-11-15T08:01:09.319Z,100540
2022-11-15T08:02:00.435Z,100540
2022-11-15T08:03:04.244Z,100540
2022-11-15T08:04:00.151Z,100540
2022-11-15T08:05:00.162Z,100540
2022-11-15T08:06:00.149Z,100540
2022-11-15T08:07:00.209Z,100540
2022-11-15T08:08:00.271Z,100540
2022-11-15T08:09:00.164Z,100540
2022-11-15T08:10:00.166Z,100540
2022-11-15T08:11:00.541Z,100540
2022-11-15T08:12:00.186Z,100540
2022-11-15T08:13:01.291Z,100540
2022-11-15T08:14:00.164Z,100540
2022-11-15T08:15:00.176Z,100540
2022-11-15T08:16:00.817Z,100540
2022-11-15T08:17:00.176Z,100540
2022-11-15T08:18:01.187Z,100540
2022-11-15T08:19:00.199Z,100550
2022-11-15T08:20:00.174Z,100550
2022-11-15T08:21:00.901Z,100550
2022-11-15T08:22:00.161Z,100550
2022-11-15T08:23:01.174Z,100550
2022-11-15T08:24:00.152Z,100550
2022-11-15T08:25:00.153Z,100560
2022-11-15T08:26:01.818Z,100560
2022-11-15T08:27:00.291Z,100550
2022-11-15T08:28:02.214Z,100550
2022-11-15T08:29:00.163Z,100550
2022-11-15T08:30:00.163Z,100550
2022-11-15T08:31:00.201Z,100550
2022-11-15T08:32:00.159Z,100550
2022-11-15T08:33:00.200Z,100550
2022-11-15T08:34:00.572Z,100550
2022-11-15T08:35:00.162Z,100550
2022-11-15T08:36:00.653Z,100550
2022-11-15T08:37:00.153Z,100550
2022-11-15T08:38:00.198Z,100550
2022-11-15T08:39:00.220Z,100550
2022-11-15T08:40:00.179Z,100550
2022-11-15T08:41:01.609Z,100550
2022-11-15T08:42:00.219Z,100550
2022-11-15T08:43:00.166Z,100550
2022-11-15T08:44:00.156Z,100550
2022-11-15T08:45:00.178Z,100550
2022-11-15T08:46:00.163Z,100550
2022-11-15T08:47:00.154Z,100540
2022-11-15T08:48:02.400Z,100540
2022-11-15T08:49:00.327Z,100550
2022-11-15T08:50:00.303Z,100550
2022-11-15T08:51:00.169Z,100540
2022-11-15T08:52:00.154Z,100540
2022-11-15T08:53:07.585Z,100540
2022-11-15T08:54:00.159Z,100540
2022-11-15T08:55:00.156Z,100540
2022-11-15T08:56:00.156Z,100540
2022-11-15T08:57:00.155Z,100540
2022-11-15T08:58:00.154Z,100540
2022-11-15T08:59:00.203Z,100530
2022-11-15T09:00:00.173Z,100530
2022-11-15T09:01:00.158Z,100530
2022-11-15T09:02:00.243Z,100530
2022-11-15T09:03:03.176Z,100530
2022-11-15T09:04:00.251Z,100530
2022-11-15T09:05:00.154Z,100520
2022-11-15T09:06:00.765Z,100520
2022-11-15T09:07:00.233Z,100520
2022-11-15T09:08:00.162Z,100520
2022-11-15T09:09:00.947Z,100510
2022-11-15T09:10:00.184Z,100510
2022-11-15T09:11:03.636Z,100520
2022-11-15T09:12:02.740Z,100520
2022-11-15T09:13:00.161Z,100510
2022-11-15T09:14:00.186Z,100510
2022-11-15T09:15:00.156Z,100520
2022-11-15T09:16:00.789Z,100520
2022-11-15T09:17:00.225Z,100520
2022-11-15T09:18:00.160Z,100520
2022-11-15T09:19:00.210Z,100520
2022-11-15T09:20:00.156Z,100520
2022-11-15T09:21:00.356Z,100510
2022-11-15T09:22:00.157Z,100510
2022-11-15T09:23:00.589Z,100520
2022-11-15T09:24:00.150Z,100520
2022-11-15T09:25:00.165Z,100510
2022-11-15T09:26:00.793Z,100510
2022-11-15T09:27:00.156Z,100500
2022-11-15T09:28:00.166Z,100500
2022-11-15T09:29:00.157Z,100500
2022-11-15T09:30:00.264Z,100500
2022-11-15T09:31:00.859Z,100490
2022-11-15T09:32:00.164Z,100490
2022-11-15T09:33:06.064Z,100500
2022-11-15T09:34:00.173Z,100500
2022-11-15T09:35:00.161Z,100480
2022-11-15T09:36:01.413Z,100480
2022-11-15T09:37:00.159Z,100480
2022-11-15T09:38:00.161Z,100480
2022-11-15T09:39:00.158Z,100480
2022-11-15T09:40:00.201Z,100480
2022-11-15T09:41:10.092Z,100480
2022-11-15T09:42:10.106Z,100480
2022-11-15T09:43:10.094Z,100480
2022-11-15T09:44:10.091Z,100480
2022-11-15T09:45:08.885Z,100490
2022-11-15T09:46:03.402Z,100490
2022-11-15T09:47:01.156Z,100480
2022-11-15T09:48:08.921Z,100480
2022-11-15T09:49:01.668Z,100490
2022-11-15T09:50:07.492Z,100490
2022-11-15T09:51:00.169Z,100480
2022-11-15T09:52:00.530Z,100480
2022-11-15T09:53:00.215Z,100490
2022-11-15T09:55:00.269Z,100480
2022-11-15T09:56:01.417Z,100480
2022-11-15T09:57:15.707Z,100480
2022-11-15T09:58:07.198Z,100480
2022-11-15T09:59:10.101Z,100480
2022-11-15T10:00:30.651Z,100480
2022-11-15T10:01:02.474Z,100470
2022-11-15T10:02:08.257Z,100470
2022-11-15T10:03:08.808Z,100470
2022-11-15T10:04:00.184Z,100470
2022-11-15T10:05:00.686Z,100470
2022-11-15T10:06:01.651Z,100470
2022-11-15T10:07:04.189Z,100470
2022-11-15T10:08:10.099Z,100470
2022-11-15T10:09:04.446Z,100470
2022-11-15T10:10:05.106Z,100470
2022-11-15T10:11:30.420Z,100470
2022-11-15T10:12:00.198Z,100470
2022-11-15T10:13:00.218Z,100470
2022-11-15T10:14:02.056Z,100470
2022-11-15T10:15:02.702Z,100470
2022-11-15T10:16:10.092Z,100470
2022-11-15T10:17:10.090Z,100470
2022-11-15T10:18:08.864Z,100470
2022-11-15T10:19:09.541Z,100460
2022-11-15T10:20:10.014Z,100460
2022-11-15T10:21:06.724Z,100460
2022-11-15T10:22:06.456Z,100460
2022-11-15T10:23:00.976Z,100460
2022-11-15T10:24:00.947Z,100460
2022-11-15T10:25:10.093Z,100460
2022-11-15T10:26:06.434Z,100460
2022-11-15T10:27:00.260Z,100440
2022-11-15T10:28:09.595Z,100440
2022-11-15T10:29:00.158Z,100440
2022-11-15T10:30:00.227Z,100440
2022-11-15T10:31:00.864Z,100440
2022-11-15T10:32:00.167Z,100440
2022-11-15T10:33:10.089Z,100430
2022-11-15T10:34:10.097Z,100430
2022-11-15T10:35:10.095Z,100440
2022-11-15T10:36:10.109Z,100440
2022-11-15T10:37:00.479Z,100430
2022-11-15T10:38:09.638Z,100430
2022-11-15T10:39:00.171Z,100430
2022-11-15T10:40:02.910Z,100430
2022-11-15T10:41:06.926Z,100430
2022-11-15T10:42:13.978Z,100430
2022-11-15T10:43:10.098Z,100430
2022-11-15T10:44:07.545Z,100430
2022-11-15T10:45:00.164Z,100430
2022-11-15T10:46:39.321Z,100430
2022-11-15T10:47:06.571Z,100430
2022-11-15T10:48:10.094Z,100430
2022-11-15T10:49:10.087Z,100420
2022-11-15T10:50:03.455Z,100420
2022-11-15T10:51:00.177Z,100410
2022-11-15T10:52:10.091Z,100410
2022-11-15T10:53:01.181Z,100410
2022-11-15T10:54:00.705Z,100410
2022-11-15T10:55:00.145Z,100410
2022-11-15T10:56:05.850Z,100410
2022-11-15T10:57:04.764Z,100410
2022-11-15T10:58:10.100Z,100410
2022-11-15T10:59:00.242Z,100400
2022-11-15T11:00:03.726Z,100400
2022-11-15T11:01:10.205Z,100400
2022-11-15T11:02:00.158Z,100400
2022-11-15T11:03:00.144Z,100400
2022-11-15T11:04:01.314Z,100400
2022-11-15T11:05:00.701Z,100400
2022-11-15T11:06:10.096Z,100400
2022-11-15T11:07:00.243Z,100400
2022-11-15T11:08:02.273Z,100400
2022-11-15T11:09:03.321Z,100400
2022-11-15T11:10:02.649Z,100400
2022-11-15T11:11:03.491Z,100400
2022-11-15T11:12:00.391Z,100400
2022-11-15T11:13:10.090Z,100390
2022-11-15T11:14:10.090Z,100390
2022-11-15T11:15:01.759Z,100390
2022-11-15T11:16:01.159Z,100390
2022-11-15T11:17:10.094Z,100390
2022-11-15T11:18:01.164Z,100390
2022-11-15T11:19:10.102Z,100380
2022-11-15T11:20:01.157Z,100380
2022-11-15T11:21:07.822Z,100380
2022-11-15T11:22:05.698Z,100380
2022-11-15T11:23:03.574Z,100370
2022-11-15T11:24:08.510Z,100370
2022-11-15T11:25:10.095Z,100380
2022-11-15T11:26:10.094Z,100380
2022-11-15T11:27:00.139Z,100380
2022-11-15T11:28:10.095Z,100380
2022-11-15T11:29:10.091Z,100380
2022-11-15T11:30:03.285Z,100380
2022-11-15T11:31:00.138Z,100380
2022-11-15T11:32:07.985Z,100380
2022-11-15T11:33:00.140Z,100370
2022-11-15T11:34:08.133Z,100370
2022-11-15T11:35:10.105Z,100370
2022-11-15T11:36:00.137Z,100370
2022-11-15T11:37:04.656Z,100360
2022-11-15T11:38:10.089Z,100360
2022-11-15T11:39:00.134Z,100350
2022-11-15T11:40:02.956Z,100350
2022-11-15T11:41:03.410Z,100360
2022-11-15T11:42:10.094Z,100360
2022-11-15T11:43:08.634Z,100360
2022-11-15T11:44:00.131Z,100360
2022-11-15T11:45:10.100Z,100350
2022-11-15T11:46:10.099Z,100350
2022-11-15T11:47:01.645Z,100340
2022-11-15T11:48:10.097Z,100340
2022-11-15T11:49:08.094Z,100330
2022-11-15T11:50:03.982Z,100330
2022-11-15T11:51:05.259Z,100330
2022-11-15T11:52:01.156Z,100330
2022-11-15T11:53:10.094Z,100320
2022-11-15T11:54:05.490Z,100320
2022-11-15T11:55:10.093Z,100320
2022-11-15T11:56:07.424Z,100320
2022-11-15T11:57:02.888Z,100300
2022-11-15T11:58:10.091Z,100300
2022-11-15T11:59:05.118Z,100310
2022-11-15T12:00:10.095Z,100310
2022-11-15T12:01:12.853Z,100310
2022-11-15T12:02:10.110Z,100310
2022-11-15T12:03:04.844Z,100310
2022-11-15T12:04:10.091Z,100310
2022-11-15T12:05:03.667Z,100310
2022-11-15T12:06:02.357Z,100310
2022-11-15T12:07:10.179Z,100300
2022-11-15T12:08:04.502Z,100300
2022-11-15T12:09:04.316Z,100300
2022-11-15T12:10:05.623Z,100300
2022-11-15T12:11:06.741Z,100290
2022-11-15T12:12:07.549Z,100290
2022-11-15T12:13:10.096Z,100290
2022-11-15T12:14:03.268Z,100290
2022-11-15T12:15:04.103Z,100290
2022-11-15T12:16:09.174Z,100290
2022-11-15T12:17:00.320Z,100280
2022-11-15T12:18:00.902Z,100280
2022-11-15T12:19:01.278Z,100280
2022-11-15T12:20:03.116Z,100280
2022-11-15T12:21:05.490Z,100270
2022-11-15T12:22:01.154Z,100270
2022-11-15T12:23:04.683Z,100270
2022-11-15T12:24:04.550Z,100270
2022-11-15T12:25:02.515Z,100260
2022-11-15T12:26:03.953Z,100260
2022-11-15T12:27:03.580Z,100260
2022-11-15T12:28:10.093Z,100260
2022-11-15T12:29:08.527Z,100260